createdAt,value
2018-07-04T00:02:20.353Z,55.92
2018-07-04T00:05:05.254Z,56.42
2018-07-04T00:07:50.392Z,56.49
2018-07-04T00:10:32.381Z,56.67
2018-07-04T00:13:17.662Z,56.46
2018-07-04T00:15:57.022Z,56.60
2018-07-04T00:18:42.044Z,57.26
2018-07-04T00:21:27.282Z,57.34
2018-07-04T00:24:12.514Z,56.58
2018-07-04T00:26:57.637Z,56.66
2018-07-04T00:29:42.763Z,56.27
2018-07-04T00:32:27.974Z,55.87
2018-07-04T00:35:13.065Z,56.71
2018-07-04T00:37:58.041Z,57.02
2018-07-04T00:40:43.166Z,56.26
2018-07-04T00:43:28.371Z,56.18
2018-07-04T00:46:13.351Z,55.72
2018-07-04T00:48:58.537Z,55.53
2018-07-04T00:51:44.154Z,55.75
2018-07-04T00:54:29.550Z,57.01
2018-07-04T00:57:14.769Z,57.09
2018-07-04T00:59:59.971Z,57.34
2018-07-04T01:02:45.446Z,56.95
2018-07-04T01:05:30.610Z,58.16
2018-07-04T01:08:15.443Z,58.42
2018-07-04T01:10:55.513Z,57.83
2018-07-04T01:13:40.601Z,57.74
2018-07-04T01:16:25.638Z,57.69
2018-07-04T01:19:10.825Z,58.49
2018-07-04T01:21:55.971Z,58.07
2018-07-04T01:24:41.281Z,57.41
2018-07-04T01:27:26.297Z,57.35
2018-07-04T01:30:11.553Z,57.90
2018-07-04T01:32:56.961Z,57.56
2018-07-04T01:35:41.953Z,57.60
2018-07-04T01:38:27.263Z,58.55
2018-07-04T01:41:12.395Z,58.34
2018-07-04T01:43:57.287Z,57.95
2018-07-04T01:46:42.500Z,58.26
2018-07-04T01:49:27.689Z,59.48
2018-07-04T01:52:12.825Z,59.28
2018-07-04T01:54:57.907Z,59.20
2018-07-04T01:57:43.002Z,59.27
2018-07-04T02:00:28.354Z,58.73
2018-07-04T02:03:07.638Z,58.82
2018-07-04T02:05:52.772Z,58.94
2018-07-04T02:08:37.700Z,59.51
2018-07-04T02:11:22.910Z,59.21
2018-07-04T02:14:08.036Z,59.85
2018-07-04T02:16:53.106Z,59.82
2018-07-04T02:19:38.390Z,60.30
2018-07-04T02:22:23.459Z,59.98
2018-07-04T02:25:08.414Z,60.01
2018-07-04T02:27:53.449Z,59.14
2018-07-04T02:30:38.456Z,59.64
2018-07-04T02:33:23.667Z,60.67
2018-07-04T02:36:03.125Z,61.10
2018-07-04T02:38:48.270Z,60.50
2018-07-04T02:41:33.424Z,60.65
2018-07-04T02:44:18.843Z,61.40
2018-07-04T02:46:58.122Z,61.22
2018-07-04T02:49:43.478Z,60.75
2018-07-04T02:52:28.571Z,61.20
2018-07-04T02:55:13.547Z,61.75
2018-07-04T02:57:52.766Z,61.47
2018-07-04T03:00:37.778Z,61.86
2018-07-04T03:03:22.857Z,61.88
2018-07-04T03:06:15.034Z,61.63
2018-07-04T03:09:00.114Z,61.94
2018-07-04T03:11:45.514Z,61.80
2018-07-04T03:14:30.545Z,61.55
2018-07-04T03:17:15.752Z,62.97
2018-07-04T03:20:00.746Z,62.24
2018-07-04T03:22:45.754Z,62.40
2018-07-04T03:25:30.972Z,62.09
2018-07-04T03:28:16.079Z,62.00
2018-07-04T03:31:01.203Z,62.46
2018-07-04T03:33:40.745Z,62.43
2018-07-04T03:36:25.975Z,62.05
2018-07-04T03:39:11.162Z,62.54
2018-07-04T03:41:56.303Z,62.42
2018-07-04T03:44:41.336Z,62.81
2018-07-04T03:47:26.519Z,62.62
2018-07-04T03:50:11.772Z,62.41
2018-07-04T03:52:56.751Z,62.11
2018-07-04T03:55:42.040Z,62.31
2018-07-04T03:58:27.291Z,62.45
2018-07-04T04:01:12.422Z,62.63
2018-07-04T04:03:57.558Z,63.22
2018-07-04T04:06:42.782Z,62.38
2018-07-04T04:09:28.078Z,62.02
2018-07-04T04:12:13.277Z,62.11
2018-07-04T04:14:58.467Z,61.79
2018-07-04T04:17:43.635Z,61.56
2018-07-04T04:20:28.995Z,62.27
2018-07-04T04:23:14.517Z,61.78
2018-07-04T04:25:59.548Z,62.23
2018-07-04T04:28:44.710Z,61.90
2018-07-04T04:31:29.906Z,62.10
2018-07-04T04:34:15.070Z,62.19
2018-07-04T04:37:00.246Z,61.65
2018-07-04T04:39:45.502Z,61.65
2018-07-04T04:42:24.941Z,62.06
2018-07-04T04:45:10.577Z,61.98
2018-07-04T04:47:56.363Z,61.03
2018-07-04T04:50:41.356Z,62.14
2018-07-04T04:53:26.372Z,61.69
2018-07-04T04:56:11.439Z,61.79
2018-07-04T04:58:56.543Z,60.50
2018-07-04T05:01:41.726Z,60.67
2018-07-04T05:04:26.716Z,60.48
2018-07-04T05:07:11.886Z,60.07
2018-07-04T05:09:56.976Z,60.51
2018-07-04T05:12:42.421Z,60.25
2018-07-04T05:15:27.265Z,61.16
2018-07-04T05:18:12.396Z,60.50
2018-07-04T05:20:57.766Z,60.98
2018-07-04T05:23:43.183Z,60.80
2018-07-04T05:26:28.362Z,60.80
2018-07-04T05:29:13.520Z,60.01
2018-07-04T05:31:58.578Z,61.02
2018-07-04T05:34:45.462Z,59.93
2018-07-04T05:37:30.724Z,59.25
2018-07-04T05:40:15.947Z,59.36
2018-07-04T05:43:01.059Z,59.07
2018-07-04T05:45:46.905Z,57.99
2018-07-04T05:48:31.958Z,57.36
2018-07-04T05:51:17.175Z,57.87
2018-07-04T05:54:02.214Z,58.98
2018-07-04T05:56:47.229Z,58.98
2018-07-04T05:59:32.202Z,58.92
2018-07-04T06:02:17.194Z,58.66
2018-07-04T06:05:02.121Z,59.07
2018-07-04T06:07:47.105Z,58.02
2018-07-04T06:10:32.295Z,57.09
2018-07-04T06:13:17.389Z,55.87
2018-07-04T06:16:02.746Z,55.88
2018-07-04T06:18:47.906Z,55.45
2018-07-04T06:21:32.875Z,55.43
2018-07-04T06:24:17.970Z,54.13
2018-07-04T06:27:03.106Z,53.22
2018-07-04T06:29:48.322Z,53.06
2018-07-04T06:32:33.226Z,52.84
2018-07-04T06:35:18.335Z,54.39
2018-07-04T06:37:44.646Z,52.90
2018-07-04T06:40:10.995Z,53.93
2018-07-04T06:42:37.755Z,54.06
2018-07-04T06:45:04.164Z,56.25
2018-07-04T06:47:30.656Z,61.24
2018-07-04T06:49:57.030Z,61.77
2018-07-04T06:52:23.358Z,61.17
2018-07-04T06:54:50.204Z,61.50
2018-07-04T06:57:17.466Z,64.54
2018-07-04T06:59:43.774Z,61.71
2018-07-04T07:02:12.279Z,63.77
2018-07-04T07:05:01.951Z,66.40
2018-07-04T07:07:47.625Z,64.56
2018-07-04T07:10:39.305Z,63.70
2018-07-04T07:13:24.728Z,64.76
2018-07-04T07:16:03.932Z,64.61
2018-07-04T07:21:21.979Z,65.44
2018-07-04T07:24:06.927Z,62.95
2018-07-04T07:26:52.150Z,63.54
2018-07-04T07:29:37.346Z,63.77
2018-07-04T07:32:22.434Z,64.35
2018-07-04T07:35:07.611Z,65.79
2018-07-04T07:37:52.668Z,66.01
2018-07-04T07:40:37.831Z,65.28
2018-07-04T07:43:22.883Z,66.35
2018-07-04T07:46:07.855Z,65.57
2018-07-04T07:48:52.879Z,65.11
2018-07-04T07:51:39.123Z,66.54
2018-07-04T07:54:24.263Z,65.87
2018-07-04T07:57:09.138Z,65.01
2018-07-04T07:59:54.098Z,66.36
2018-07-04T08:02:41.042Z,65.07
2018-07-04T08:05:26.412Z,66.44
2018-07-04T08:08:11.488Z,65.83
2018-07-04T08:10:56.399Z,65.66
2018-07-04T08:13:41.715Z,65.91
2018-07-04T08:16:26.962Z,67.97
2018-07-04T08:19:12.138Z,67.63
2018-07-04T08:21:57.483Z,68.16
2018-07-04T08:24:42.591Z,67.47
2018-07-04T08:27:27.492Z,67.65
2018-07-04T08:30:13.195Z,68.36
2018-07-04T08:32:58.210Z,67.77
2018-07-04T08:35:37.288Z,65.74
2018-07-04T08:38:22.333Z,66.07
2018-07-04T08:41:08.580Z,66.51
2018-07-04T08:43:53.586Z,66.05
2018-07-04T08:46:38.680Z,67.26
2018-07-04T08:49:23.827Z,66.45
2018-07-04T08:52:08.903Z,66.96
2018-07-04T08:54:54.719Z,68.17
2018-07-04T08:57:39.695Z,67.48
2018-07-04T09:00:25.835Z,65.63
2018-07-04T09:03:10.791Z,67.02
2018-07-04T09:05:56.563Z,66.38
2018-07-04T09:08:41.423Z,65.43
2018-07-04T09:11:26.693Z,64.43
2018-07-04T09:14:11.813Z,64.67
2018-07-04T09:16:56.836Z,65.22
2018-07-04T09:19:41.946Z,64.10
2018-07-04T09:22:27.162Z,63.62
2018-07-04T09:25:12.443Z,63.84
2018-07-04T09:27:57.536Z,64.70
2018-07-04T09:30:42.582Z,64.06
2018-07-04T09:33:27.774Z,63.69
2018-07-04T09:36:13.014Z,62.64
2018-07-04T09:38:58.107Z,62.12
2018-07-04T09:41:43.242Z,61.95
2018-07-04T09:44:28.535Z,61.23
2018-07-04T09:47:13.841Z,60.44
2018-07-04T09:49:58.910Z,59.30
2018-07-04T09:52:44.883Z,59.91
2018-07-04T09:55:30.078Z,58.63
2018-07-04T09:58:16.222Z,58.38
2018-07-04T10:01:07.225Z,58.88
2018-07-04T10:03:52.034Z,58.12
2018-07-04T10:06:40.007Z,57.09
2018-07-04T10:09:25.818Z,57.46
2018-07-04T10:12:10.963Z,56.34
2018-07-04T10:14:56.058Z,57.32
2018-07-04T10:17:41.196Z,55.13
2018-07-04T10:20:26.413Z,54.16
2018-07-04T10:23:11.547Z,55.15
2018-07-04T10:25:56.669Z,54.34
2018-07-04T10:28:41.846Z,51.82
2018-07-04T10:31:26.894Z,51.91
2018-07-04T10:34:12.094Z,51.35
2018-07-04T10:36:58.395Z,51.81
2018-07-04T10:39:37.728Z,51.60
2018-07-04T10:42:22.915Z,51.82
2018-07-04T10:45:08.036Z,49.97
2018-07-04T10:47:53.174Z,50.60
2018-07-04T10:50:38.703Z,48.70
2018-07-04T10:53:23.931Z,48.14
2018-07-04T10:56:09.098Z,47.59
2018-07-04T10:58:54.101Z,50.11
2018-07-04T11:01:39.126Z,49.63
2018-07-04T11:04:24.343Z,46.73
2018-07-04T11:07:03.638Z,46.96
2018-07-04T11:09:48.869Z,46.34
2018-07-04T11:12:33.982Z,46.85
2018-07-04T11:15:19.044Z,45.85
2018-07-04T11:18:04.438Z,46.09
2018-07-04T11:20:49.622Z,45.35
2018-07-04T11:23:34.690Z,44.68
2018-07-04T11:26:19.956Z,45.32
2018-07-04T11:29:05.099Z,44.41
2018-07-04T11:31:50.113Z,45.16
2018-07-04T11:34:35.407Z,47.12
2018-07-04T11:37:20.481Z,46.06
2018-07-04T11:40:05.803Z,48.51
2018-07-04T11:42:50.831Z,51.76
2018-07-04T11:45:35.998Z,52.40
2018-07-04T11:48:02.311Z,56.09
2018-07-04T11:50:28.611Z,56.28
2018-07-04T11:52:54.903Z,58.13
2018-07-04T11:55:21.208Z,58.07
2018-07-04T11:57:47.501Z,58.32
2018-07-04T12:00:13.882Z,57.47
2018-07-04T12:02:40.179Z,58.36
2018-07-04T12:05:25.442Z,59.19
2018-07-04T12:07:51.727Z,58.55
2018-07-04T12:10:33.943Z,58.05
2018-07-04T12:13:00.596Z,57.97
2018-07-04T12:15:26.962Z,57.89
2018-07-04T12:17:53.243Z,57.48
2018-07-04T12:20:20.154Z,57.25
2018-07-04T12:22:46.447Z,57.79
2018-07-04T12:25:13.289Z,55.68
2018-07-04T12:27:39.713Z,56.20
2018-07-04T12:30:07.055Z,55.31
2018-07-04T12:32:33.399Z,54.51
2018-07-04T12:34:59.694Z,53.41
2018-07-04T12:37:27.066Z,53.11
2018-07-04T12:39:53.358Z,53.16
2018-07-04T12:42:20.165Z,54.32
2018-07-04T12:44:46.449Z,53.96
2018-07-04T12:47:12.753Z,53.44
2018-07-04T12:49:39.011Z,53.10
2018-07-04T12:52:05.333Z,50.10
2018-07-04T12:54:37.481Z,51.41
2018-07-04T12:57:22.715Z,49.89
2018-07-04T13:00:08.536Z,48.31
2018-07-04T13:02:48.153Z,46.74
2018-07-04T13:05:33.256Z,44.89
2018-07-04T13:08:18.517Z,45.73
2018-07-04T13:11:03.677Z,46.02
2018-07-04T13:13:48.722Z,46.37
2018-07-04T13:16:34.030Z,44.69
2018-07-04T13:19:19.340Z,42.96
2018-07-04T13:22:04.419Z,43.32
2018-07-04T13:24:49.702Z,43.06
2018-07-04T13:27:34.874Z,42.83
2018-07-04T13:30:20.146Z,42.62
2018-07-04T13:33:05.379Z,41.08
2018-07-04T13:35:50.558Z,40.86
2018-07-04T13:38:35.591Z,42.01
2018-07-04T13:41:21.475Z,40.99
2018-07-04T13:44:06.504Z,40.15
2018-07-04T13:46:51.655Z,39.86
2018-07-04T13:49:37.018Z,39.92
2018-07-04T13:52:22.077Z,39.32
2018-07-04T13:55:01.388Z,40.48
2018-07-04T13:57:46.520Z,40.50
2018-07-04T14:00:31.615Z,38.57
2018-07-04T14:03:16.961Z,38.43
2018-07-04T14:06:02.037Z,38.75
2018-07-04T14:08:41.455Z,38.19
2018-07-04T14:11:27.129Z,38.00
2018-07-04T14:14:12.386Z,37.57
2018-07-04T14:16:52.422Z,37.88
2018-07-04T14:19:37.682Z,37.20
2018-07-04T14:22:22.691Z,34.87
2018-07-04T14:25:02.057Z,34.79
2018-07-04T14:27:47.067Z,34.90
2018-07-04T14:30:32.363Z,34.72
2018-07-04T14:33:17.742Z,35.63
2018-07-04T14:36:02.783Z,36.44
2018-07-04T14:38:48.089Z,35.25
2018-07-04T14:41:33.931Z,36.50
2018-07-04T14:44:19.090Z,35.43
2018-07-04T14:47:04.291Z,35.13
2018-07-04T14:49:43.714Z,32.41
2018-07-04T14:52:28.964Z,32.64
2018-07-04T14:55:08.146Z,33.20
2018-07-04T14:57:53.339Z,35.49
2018-07-04T15:00:38.572Z,35.08
2018-07-04T15:03:23.630Z,35.46
2018-07-04T15:06:08.871Z,35.46
2018-07-04T15:08:54.007Z,36.36
2018-07-04T15:11:39.101Z,35.85
2018-07-04T15:14:24.109Z,35.88
2018-07-04T15:17:09.382Z,35.70
2018-07-04T15:19:54.713Z,36.02
2018-07-04T15:22:39.854Z,36.18
2018-07-04T15:25:25.106Z,35.67
2018-07-04T15:28:10.432Z,36.68
2018-07-04T15:30:55.653Z,36.94
2018-07-04T15:33:41.080Z,37.47
2018-07-04T15:36:26.251Z,38.25
2018-07-04T15:39:11.469Z,39.75
2018-07-04T15:41:56.930Z,40.51
2018-07-04T15:44:42.053Z,39.53
2018-07-04T15:47:21.374Z,40.55
2018-07-04T15:50:06.483Z,40.06
2018-07-04T15:52:51.566Z,40.16
2018-07-04T15:55:36.687Z,39.42
2018-07-04T15:58:21.800Z,40.49
2018-07-04T16:01:06.791Z,41.52
2018-07-04T16:03:52.018Z,41.11
2018-07-04T16:06:37.162Z,42.78
2018-07-04T16:09:22.482Z,42.76
2018-07-04T16:12:07.756Z,42.21
2018-07-04T16:14:52.897Z,42.60
2018-07-04T16:17:37.871Z,43.21
2018-07-04T16:20:23.172Z,43.52
2018-07-04T16:23:08.283Z,43.63
2018-07-04T16:25:53.354Z,42.42
2018-07-04T16:28:38.435Z,40.61
2018-07-04T16:31:23.940Z,40.43
2018-07-04T16:34:09.000Z,40.33
2018-07-04T16:36:54.131Z,38.64
2018-07-04T16:39:39.370Z,38.12
2018-07-04T16:42:18.633Z,37.00
2018-07-04T16:45:03.902Z,37.66
2018-07-04T16:47:48.929Z,38.06
2018-07-04T16:50:34.329Z,38.07
2018-07-04T16:53:19.450Z,37.36
2018-07-04T16:56:04.667Z,38.22
2018-07-04T16:58:49.585Z,37.18
2018-07-04T17:01:34.765Z,37.54
2018-07-04T17:04:19.892Z,37.49
2018-07-04T17:07:05.038Z,36.73
2018-07-04T17:09:50.294Z,37.53
2018-07-04T17:12:35.514Z,36.85
2018-07-04T17:15:20.626Z,37.33
2018-07-04T17:18:05.583Z,37.56
2018-07-04T17:20:50.706Z,38.34
2018-07-04T17:23:35.943Z,37.96
2018-07-04T17:26:20.926Z,38.20
2018-07-04T17:29:05.968Z,37.40
2018-07-04T17:31:51.020Z,38.23
2018-07-04T17:34:35.918Z,37.98
2018-07-04T17:37:21.128Z,37.24
2018-07-04T17:40:06.263Z,37.68
2018-07-04T17:42:51.404Z,37.13
2018-07-04T17:45:30.817Z,38.03
2018-07-04T17:48:15.862Z,37.57
2018-07-04T17:51:00.775Z,38.05
2018-07-04T17:53:46.715Z,37.89
2018-07-04T17:56:31.913Z,37.66
2018-07-04T17:59:17.274Z,38.21
2018-07-04T18:02:02.495Z,37.88
2018-07-04T18:04:47.521Z,38.56
2018-07-04T18:07:32.592Z,38.30
2018-07-04T18:10:11.998Z,38.13
2018-07-04T18:12:57.092Z,38.64
2018-07-04T18:15:42.120Z,39.47
2018-07-04T18:18:27.067Z,38.49
2018-07-04T18:21:12.283Z,38.56
2018-07-04T18:23:57.527Z,39.03
2018-07-04T18:26:42.528Z,39.21
2018-07-04T18:29:27.749Z,39.28
2018-07-04T18:32:12.962Z,39.70
2018-07-04T18:34:57.794Z,39.40
2018-07-04T18:37:49.933Z,40.75
2018-07-04T18:40:35.042Z,41.37
2018-07-04T18:43:20.139Z,41.03
2018-07-04T18:46:05.145Z,41.67
2018-07-04T18:48:50.238Z,42.09
2018-07-04T18:51:35.366Z,42.38
2018-07-04T18:54:20.488Z,42.61
2018-07-04T18:57:05.559Z,43.33
2018-07-04T18:59:51.357Z,42.57
2018-07-04T19:02:36.518Z,43.90
2018-07-04T19:05:21.880Z,46.36
2018-07-04T19:08:07.023Z,47.02
2018-07-04T19:10:51.986Z,47.50
2018-07-04T19:13:37.195Z,48.09
2018-07-04T19:16:25.421Z,49.33
2018-07-04T19:19:10.408Z,50.25
2018-07-04T19:21:55.560Z,50.77
2018-07-04T19:24:40.750Z,51.21
2018-07-04T19:27:25.758Z,50.28
2018-07-04T19:30:11.070Z,51.56
2018-07-04T19:32:56.231Z,51.26
2018-07-04T19:35:41.406Z,52.38
2018-07-04T19:38:26.639Z,52.48
2018-07-04T19:41:11.850Z,53.29
2018-07-04T19:43:51.229Z,53.25
2018-07-04T19:46:36.342Z,53.69
2018-07-04T19:49:21.372Z,52.95
2018-07-04T19:52:06.645Z,53.33
2018-07-04T19:54:51.723Z,53.99
2018-07-04T19:57:36.650Z,53.42
2018-07-04T20:00:21.583Z,53.50
2018-07-04T20:03:06.935Z,53.72
2018-07-04T20:05:52.260Z,54.79
2018-07-04T20:08:37.189Z,54.10
2018-07-04T20:11:22.166Z,55.16
2018-07-04T20:14:07.372Z,54.27
2018-07-04T20:16:52.729Z,54.50
2018-07-04T20:19:37.879Z,55.86
2018-07-04T20:22:22.833Z,55.91
2018-07-04T20:25:07.870Z,55.75
2018-07-04T20:27:52.975Z,56.06
2018-07-04T20:30:37.920Z,55.98
2018-07-04T20:33:23.006Z,56.48
2018-07-04T20:36:08.199Z,55.96
2018-07-04T20:38:53.239Z,56.15
2018-07-04T20:41:32.497Z,55.53
2018-07-04T20:44:17.639Z,54.88
2018-07-04T20:47:02.748Z,55.66
2018-07-04T20:49:47.643Z,54.52
2018-07-04T20:52:32.610Z,55.62
2018-07-04T20:55:17.729Z,56.50
2018-07-04T20:58:03.026Z,55.50
2018-07-04T21:00:48.197Z,55.88
2018-07-04T21:03:33.552Z,55.50
2018-07-04T21:06:18.668Z,55.85
2018-07-04T21:09:04.063Z,55.38
2018-07-04T21:11:49.277Z,55.58
2018-07-04T21:14:34.412Z,56.71
2018-07-04T21:17:19.434Z,57.76
2018-07-04T21:20:04.638Z,58.31
2018-07-04T21:22:49.797Z,58.78
2018-07-04T21:25:35.145Z,58.11
2018-07-04T21:28:20.191Z,59.12
2018-07-04T21:31:05.385Z,58.62
2018-07-04T21:33:50.414Z,59.71
2018-07-04T21:36:35.378Z,59.51
2018-07-04T21:39:20.490Z,59.70
2018-07-04T21:42:05.635Z,59.80
2018-07-04T21:44:50.684Z,60.61
2018-07-04T21:47:35.965Z,60.64
2018-07-04T21:50:21.245Z,61.04
2018-07-04T21:53:06.269Z,61.22
2018-07-04T21:55:51.578Z,60.60
2018-07-04T21:58:37.062Z,61.71
2018-07-04T22:01:22.298Z,61.41
2018-07-04T22:04:07.675Z,61.18
2018-07-04T22:06:52.490Z,60.41
2018-07-04T22:09:37.598Z,61.48
2018-07-04T22:12:22.694Z,60.76
2018-07-04T22:15:08.015Z,60.48
2018-07-04T22:17:53.055Z,61.14
2018-07-04T22:20:38.126Z,61.68
2018-07-04T22:23:23.343Z,61.42
2018-07-04T22:26:08.630Z,62.07
2018-07-04T22:28:53.816Z,61.29
2018-07-04T22:31:39.167Z,61.66
2018-07-04T22:34:24.199Z,62.38
2018-07-04T22:37:09.417Z,62.15
2018-07-04T22:39:54.402Z,62.04
2018-07-04T22:42:39.597Z,63.03
2018-07-04T22:45:24.837Z,62.62
2018-07-04T22:48:09.978Z,63.47
2018-07-04T22:50:55.047Z,63.14
2018-07-04T22:53:40.213Z,63.87
2018-07-04T22:56:25.347Z,63.25
2018-07-04T22:59:10.394Z,64.00
2018-07-04T23:01:55.532Z,62.94
2018-07-04T23:04:40.646Z,63.19
2018-07-04T23:07:25.493Z,63.39
2018-07-04T23:10:10.593Z,63.38
2018-07-04T23:12:55.669Z,63.49
2018-07-04T23:15:40.902Z,63.80
2018-07-04T23:18:25.929Z,64.23
2018-07-04T23:21:10.887Z,63.80
2018-07-04T23:23:56.086Z,63.54
2018-07-04T23:26:41.415Z,64.24
2018-07-04T23:29:26.670Z,64.25
2018-07-04T23:32:11.878Z,64.80
2018-07-04T23:34:57.064Z,64.11
2018-07-04T23:37:42.230Z,64.22
2018-07-04T23:40:27.326Z,63.39
2018-07-04T23:43:12.703Z,63.75
2018-07-04T23:45:58.058Z,64.12
2018-07-04T23:48:43.443Z,63.88
2018-07-04T23:51:28.526Z,64.00
2018-07-04T23:54:07.872Z,64.35
2018-07-04T23:56:53.054Z,63.82
2018-07-04T23:59:38.083Z,64.84
